Nearby METAR Reports

 

KIAG - Niagara Falls, New York, USA
Distance from station: W 12mi, 20km
Updated: 01/23/2021 5:53pm
Mostly cloudy
Mostly cloudy
 Wind from NW
Wind: NW 10 mph , 17 km/h
Temperature: 21°F , -6°C
Wind Chill: 10°F , -12°C
Dew Point: 10°F , -12°C
Humidity: 63%
Barometer: 1026.4 hPa
Clouds: Mostly cloudy
Visibility: 10 miles , 16 km
Cloud details: Mostly cloudy 4100 ft
Mostly cloudy 5000 ft
2021/01/23 22:53 KIAG 232253Z 31009KT 10SM BKN041 BKN050 M06/M12 A3031 RMK AO2 SLP283 T10561122
KBUF - Buffalo/Cheektow, New York, USA
Distance from station: S 13mi, 21km
Updated: 01/23/2021 5:54pm
Mostly cloudy
Mostly cloudy
 Wind from NW
Wind: NW 12 mph , 19 km/h
Temperature: 23°F , -5°C
Wind Chill: 11°F , -12°C
Dew Point: 9°F , -13°C
Humidity: 54%
Barometer: 1026.1 hPa
Clouds: Mostly cloudy
Visibility: 10 miles , 16 km
Cloud details: Mostly cloudy 4200 ft
2021/01/23 22:54 KBUF 232254Z 31010KT 10SM BKN042 M05/M13 A3030 RMK AO2 SLP272 T10501128 $
 
KROC - Rochester, New York, USA
Distance from station: E 51mi, 82km
Updated: 01/23/2021 5:54pm
Light snow, Overcast
Light snow, Overcast
 Wind from WNW
Wind: WNW 10 mph , 17 km/h
Temperature: 19°F , -7°C
Wind Chill: 8°F , -13°C
Dew Point: 16°F , -9°C
Humidity: 86%
Barometer: 1025.1 hPa
Summary: Light Snow
Clouds: Overcast
Visibility: 8 miles , 13 km
Cloud details: Overcast 3800 ft
2021/01/23 22:54 KROC 232254Z 30009KT 8SM -SN OVC038 M07/M09 A3027 RMK AO2 SLP265 P0000 T10671094
CYSN - St. Catharines A, Ontario, Canada
Distance from station: WNW 25mi, 40km
Updated: 01/23/2021 6:00pm
Partly cloudy
Partly cloudy
 Wind from WNW
Wind: WNW 15 mph , 24 km/h, Gust: 21 mph , 33 km/h
Temperature: 23°F , -5°C
Wind Chill: 10°F , -12°C
Dew Point: 7°F , -14°C
Humidity: 50%
Barometer: 1027.1 hPa
Clouds: Partly cloudy
Visibility: 15 miles , 24 km
Cloud details: Partly cloudy 4000 ft
Partly cloudy 23000 ft
2021/01/23 23:00 CYSN 232300Z 30013G18KT 15SM SCT040 SCT230 M05/M14 A3033 RMK SC3CI1 SLP278
 
KOLE - Olean, New York, USA
Distance from station: SSE 63mi, 102km
Updated: 01/23/2021 6:15pm
Light snow, Overcast
Light snow, Overcast
 Wind from W
Wind: W 7 mph , 11 km/h, Gust: 17 mph , 28 km/h
Temperature: 18°F , -8°C
Wind Chill: 9°F , -13°C
Dew Point: 10°F , -12°C
Humidity: 73%
Barometer: 1022 hPa
Summary: Light Snow
Clouds: Overcast
Visibility: 7 miles , 11 km
Cloud details: Mostly cloudy 2000 ft
Overcast 2800 ft
2021/01/23 23:15 KOLE 232315Z AUTO 28006G15KT 230V310 7SM -SN BKN020 OVC028 M08/M12 A3018 RMK AO2
KJHW - Jamestown, New York, USA
Distance from station: SSW 74mi, 119km
Updated: 01/23/2021 5:56pm
Light snow, Overcast
Light snow, Overcast
 Wind from NW
Wind: NW 12 mph , 19 km/h
Temperature: 19°F , -7°C
Wind Chill: 6°F , -14°C
Dew Point: 12°F , -11°C
Humidity: 73%
Barometer: 1024.4 hPa
Summary: Light Snow
Clouds: Overcast
Visibility: 9 miles , 14 km
Cloud details: Overcast 1900 ft
2021/01/23 22:56 KJHW 232256Z AUTO 32010KT 9SM -SN OVC019 M07/M11 A3025 RMK AO2 SLP277 P0000 T10721106 FZRANO
 
CWWZ - Port Weller (mar, Ontario, Canada
Distance from station: WNW 28mi, 45km
Updated: 01/23/2021 6:00pm

 Wind from NW
Wind: NW 22 mph , 35 km/h
Temperature: 25°F , -4°C
Wind Chill: 10°F , -12°C
Dew Point: 14°F , -10°C
Humidity: 63%
2021/01/23 23:00 CWWZ 232300Z AUTO 31019KT M04/M10 RMK AO1 PK WND 30024/2218 SLP280 T10371095 53018
CWPC - Port Colborne(Au, Ontario, Canada
Distance from station: WSW 33mi, 53km
Updated: 01/23/2021 6:00pm

 Wind from NW
Wind: NW 18 mph , 30 km/h, Gust: 25 mph , 41 km/h
Temperature: 25°F , -4°C
Wind Chill: 11°F , -12°C
Dew Point: 10°F , -12°C
Humidity: 54%
2021/01/23 23:00 CWPC 232300Z AUTO 32016G22KT M04/M12 RMK AO1 PK WND 32028/2214 SLP281 T10431115 53018
 
CXVN - Vineland (au8), Ontario, Canada
Distance from station: W 36mi, 58km
Updated: 01/23/2021 6:00pm

 Wind from NW
Wind: NW 12 mph , 19 km/h, Gust: 18 mph , 30 km/h
Temperature: 25°F , -4°C
Wind Chill: 14°F , -10°C
Dew Point: 9°F , -13°C
Humidity: 50%
2021/01/23 23:00 CXVN 232300Z AUTO 32010G16KT M04/M13 RMK AO1 PK WND 30020/2239 SLP279 T10431127 53019
CYTZ - Toronto Il Vor, Ontario, Canada
Distance from station: NW 50mi, 81km
Updated: 01/23/2021 6:00pm
Clear
Clear
 Wind from WNW
Wind: WNW 13 mph , 20 km/h
Temperature: 21°F , -6°C
Wind Chill: 8°F , -13°C
Dew Point: 7°F , -14°C
Humidity: 54%
Barometer: 1027.1 hPa
Clouds: Clear
Visibility: 9 miles , 14 km
2021/01/23 23:00 CYTZ 232300Z AUTO 30011KT 9SM CLR M06/M14 A3033 RMK SLP278
 
CXTO - Toronto City, Ontario, Canada
Distance from station: NW 52mi, 84km
Updated: 01/23/2021 6:00pm

 
Temperature: 21°F , -6°C
Dew Point: 7°F , -14°C
Humidity: 54%
2021/01/23 23:00 CXTO 232300Z AUTO M06/M14 RMK AO1 SLP275 T10591144 52016
KDKK - Dunkirk, New York, USA
Distance from station: SW 52mi, 84km
Updated: 01/23/2021 5:56pm
Light snow, Overcast
Light snow, Overcast
 Wind from WNW
Wind: WNW 13 mph , 20 km/h, Gust: 21 mph , 33 km/h
Temperature: 25°F , -4°C
Wind Chill: 13°F , -11°C
Dew Point: 18°F , -8°C
Humidity: 74%
Barometer: 1027.1 hPa
Summary: Light Snow
Clouds: Overcast
Visibility: 3 miles , 5 km
Cloud details: Partly cloudy 2300 ft
Overcast 3000 ft
2021/01/23 22:56 KDKK 232256Z AUTO 30011G18KT 250V330 3SM -SN SCT023 OVC030 M04/M08 A3033 RMK AO2 P0000 T10441083
 
CYOO - Oshawa, Ontario, Canada
Distance from station: N 56mi, 90km
Updated: 01/23/2021 6:00pm
Clear
Clear
 Wind from W
Wind: W 9 mph , 15 km/h
Temperature: 18°F , -8°C
Wind Chill: 7°F , -14°C
Dew Point: 10°F , -12°C
Humidity: 73%
Barometer: 1026.1 hPa
Clouds: Clear
Visibility: 9 miles , 14 km
2021/01/23 23:00 CYOO 232300Z AUTO 28008KT 9SM CLR M08/M12 A3030 RMK SLP272
CWWB - Burlington Piers, Ontario, Canada
Distance from station: WNW 56mi, 91km
Updated: 01/23/2021 6:00pm

 Wind from WNW
Wind: WNW 10 mph , 17 km/h
Temperature: 23°F , -5°C
Wind Chill: 13°F , -11°C
Dew Point: 7°F , -14°C
Humidity: 50%
2021/01/23 23:00 CWWB 232300Z AUTO 29009KT M05/M14 RMK AO1 SLP284 T10491140 53021
 
CYYZ - Toronto/Pearson, Ontario, Canada
Distance from station: NW 60mi, 96km
Updated: 01/23/2021 6:00pm
Few Clouds
Few Clouds
 Wind from WNW
Wind: WNW 10 mph , 17 km/h
Temperature: 19°F , -7°C
Wind Chill: 8°F , -13°C
Dew Point: 5°F , -15°C
Humidity: 53%
Barometer: 1026.4 hPa
Clouds: Few Clouds
Visibility: 15 miles , 24 km
Cloud details: Few Clouds 3000 ft
Few Clouds 12000 ft
2021/01/23 23:00 CYYZ 232300Z 29009KT 15SM FEW030 FEW120 M07/M15 A3031 RMK SC1AC2 SC TR SLP277
CYKZ - Toronto Buttonvi, Ontario, Canada
Distance from station: NW 62mi, 99km
Updated: 01/03/2019 4:00am
NOT Current
Partly cloudy
Partly cloudy
 Wind from WSW
Wind: WSW 5 mph , 7 km/h
Temperature: 27°F , -3°C
Wind Chill: 21°F , -6°C
Dew Point: 23°F , -5°C
Humidity: 86%
Barometer: 1010.8 hPa
Clouds: Partly cloudy
Visibility: 15 miles , 24 km
Cloud details: Partly cloudy 4000 ft
2019/01/03 09:00 CYKZ 030900Z 25004KT 15SM SCT040 M03/M05 A2985 RMK SC3 LAST STFD OBS FAREWELL SLP118
 
CXHM - Hamilton Rbg Cs, Ontario, Canada
Distance from station: W 62mi, 100km
Updated: 01/23/2021 6:00pm

 Wind from NW
Wind: NW 5 mph , 7 km/h
Temperature: 23°F , -5°C
Wind Chill: 17°F , -8°C
Dew Point: 9°F , -13°C
Humidity: 54%
2021/01/23 23:00 CXHM 232300Z AUTO 31004KT M05/M13 RMK AO1 SLP288 T10531128 53018
KDSV - Dansville, New York, USA
Distance from station: SE 62mi, 100km
Updated: 01/23/2021 5:54pm
Clear
Clear
 Wind from NW
Wind: NW 6 mph , 9 km/h
Temperature: 21°F , -6°C
Wind Chill: 13°F , -11°C
Dew Point: 9°F , -13°C
Humidity: 58%
Barometer: 1024.7 hPa
Clouds: Clear
Visibility: 10 miles , 16 km
2021/01/23 22:54 KDSV 232254Z AUTO 31005KT 10SM CLR M06/M13 A3026 RMK AO2 SLP268 T10611128 $
 
CYHM - Hamilton Airport, Ontario, Canada
Distance from station: W 63mi, 101km
Updated: 01/23/2021 6:00pm
Mostly cloudy
Mostly cloudy
 Wind from NW
Wind: NW 8 mph , 13 km/h
Temperature: 21°F , -6°C
Wind Chill: 11°F , -12°C
Dew Point: 9°F , -13°C
Humidity: 58%
Barometer: 1026.8 hPa
Clouds: Mostly cloudy
Visibility: 15 miles , 24 km
Cloud details: Mostly cloudy 4100 ft
2021/01/23 23:00 CYHM 232300Z 31007KT 15SM BKN041 M06/M13 A3032 RMK SC7 SLP284
CWNC - Cobourg (mars), Ontario, Canada
Distance from station: NNE 63mi, 102km
Updated: 01/23/2021 6:00pm

 Wind from NW
Wind: NW 9 mph , 15 km/h, Gust: 17 mph , 28 km/h
Temperature: 16°F , -9°C
Wind Chill: 5°F , -15°C
Dew Point: 7°F , -14°C
Humidity: 67%
2021/01/23 23:00 CWNC 232300Z AUTO 32008G15KT M09/M14 RMK AO1 SOG 02 2012 SLP257 T10851142